sensor_id;sensor_type;location;lat;lon;timestamp;P1;durP1;ratioP1;P2;durP2;ratioP2
40154;SDS011;25875;48.202;16.334;2022-07-09T00:01:06;5.57;;;4.30;;
40154;SDS011;25875;48.202;16.334;2022-07-09T00:03:33;6.82;;;4.40;;
40154;SDS011;25875;48.202;16.334;2022-07-09T00:06:00;5.25;;;3.88;;
40154;SDS011;25875;48.202;16.334;2022-07-09T00:08:28;6.68;;;3.35;;
40154;SDS011;25875;48.202;16.334;2022-07-09T00:10:57;4.95;;;3.15;;
40154;SDS011;25875;48.202;16.334;2022-07-09T00:13:24;4.50;;;3.47;;
40154;SDS011;25875;48.202;16.334;2022-07-09T00:15:52;5.45;;;3.70;;
40154;SDS011;25875;48.202;16.334;2022-07-09T00:18:19;4.07;;;3.03;;
40154;SDS011;25875;48.202;16.334;2022-07-09T00:20:46;5.57;;;3.08;;
40154;SDS011;25875;48.202;16.334;2022-07-09T00:23:14;6.78;;;3.33;;
40154;SDS011;25875;48.202;16.334;2022-07-09T00:25:41;4.93;;;3.33;;
40154;SDS011;25875;48.202;16.334;2022-07-09T00:28:10;4.65;;;2.63;;
40154;SDS011;25875;48.202;16.334;2022-07-09T00:30:37;4.03;;;2.63;;
40154;SDS011;25875;48.202;16.334;2022-07-09T00:33:04;4.32;;;2.80;;
40154;SDS011;25875;48.202;16.334;2022-07-09T00:35:31;4.07;;;2.65;;
40154;SDS011;25875;48.202;16.334;2022-07-09T00:37:58;5.05;;;3.00;;
40154;SDS011;25875;48.202;16.334;2022-07-09T00:40:26;4.82;;;2.78;;
40154;SDS011;25875;48.202;16.334;2022-07-09T00:42:53;4.32;;;3.13;;
40154;SDS011;25875;48.202;16.334;2022-07-09T00:45:22;7.03;;;2.97;;
40154;SDS011;25875;48.202;16.334;2022-07-09T00:47:49;4.10;;;2.67;;
40154;SDS011;25875;48.202;16.334;2022-07-09T00:50:16;3.63;;;2.58;;
40154;SDS011;25875;48.202;16.334;2022-07-09T00:52:46;4.30;;;2.83;;
40154;SDS011;25875;48.202;16.334;2022-07-09T00:55:14;3.60;;;2.40;;
40154;SDS011;25875;48.202;16.334;2022-07-09T00:57:42;4.65;;;2.60;;
40154;SDS011;25875;48.202;16.334;2022-07-09T01:00:11;5.63;;;2.50;;
40154;SDS011;25875;48.202;16.334;2022-07-09T01:02:40;4.28;;;2.60;;
40154;SDS011;25875;48.202;16.334;2022-07-09T01:05:08;4.15;;;2.47;;
40154;SDS011;25875;48.202;16.334;2022-07-09T01:07:35;9.90;;;3.30;;
40154;SDS011;25875;48.202;16.334;2022-07-09T01:10:03;5.13;;;2.40;;
40154;SDS011;25875;48.202;16.334;2022-07-09T01:12:31;4.90;;;2.60;;
40154;SDS011;25875;48.202;16.334;2022-07-09T01:14:59;4.88;;;2.42;;
40154;SDS011;25875;48.202;16.334;2022-07-09T01:17:26;4.18;;;2.53;;
40154;SDS011;25875;48.202;16.334;2022-07-09T01:19:55;3.70;;;2.72;;
40154;SDS011;25875;48.202;16.334;2022-07-09T01:22:24;6.25;;;2.67;;
40154;SDS011;25875;48.202;16.334;2022-07-09T01:24:51;4.70;;;2.40;;
40154;SDS011;25875;48.202;16.334;2022-07-09T01:27:20;5.15;;;2.80;;
40154;SDS011;25875;48.202;16.334;2022-07-09T01:29:47;4.97;;;2.90;;
40154;SDS011;25875;48.202;16.334;2022-07-09T01:32:15;4.13;;;2.70;;
40154;SDS011;25875;48.202;16.334;2022-07-09T01:34:42;4.75;;;2.80;;
40154;SDS011;25875;48.202;16.334;2022-07-09T01:37:09;3.95;;;2.35;;
40154;SDS011;25875;48.202;16.334;2022-07-09T01:39:38;5.32;;;2.53;;
40154;SDS011;25875;48.202;16.334;2022-07-09T01:42:15;4.05;;;2.60;;
40154;SDS011;25875;48.202;16.334;2022-07-09T01:44:43;3.88;;;2.55;;
40154;SDS011;25875;48.202;16.334;2022-07-09T01:47:11;3.63;;;2.45;;
40154;SDS011;25875;48.202;16.334;2022-07-09T01:49:40;3.35;;;2.13;;
40154;SDS011;25875;48.202;16.334;2022-07-09T01:52:08;3.63;;;2.33;;
40154;SDS011;25875;48.202;16.334;2022-07-09T01:54:35;4.65;;;2.45;;
40154;SDS011;25875;48.202;16.334;2022-07-09T01:57:04;4.30;;;2.78;;
40154;SDS011;25875;48.202;16.334;2022-07-09T01:59:32;3.88;;;2.63;;
40154;SDS011;25875;48.202;16.334;2022-07-09T02:01:59;3.47;;;2.70;;
40154;SDS011;25875;48.202;16.334;2022-07-09T02:04:27;4.57;;;2.47;;
40154;SDS011;25875;48.202;16.334;2022-07-09T02:06:54;3.67;;;2.50;;
40154;SDS011;25875;48.202;16.334;2022-07-09T02:09:23;4.05;;;2.53;;
40154;SDS011;25875;48.202;16.334;2022-07-09T02:11:50;4.75;;;2.80;;
40154;SDS011;25875;48.202;16.334;2022-07-09T02:14:18;3.70;;;2.13;;
40154;SDS011;25875;48.202;16.334;2022-07-09T02:16:46;4.07;;;2.30;;
40154;SDS011;25875;48.202;16.334;2022-07-09T02:19:13;4.18;;;2.40;;
40154;SDS011;25875;48.202;16.334;2022-07-09T02:21:41;4.20;;;2.28;;
40154;SDS011;25875;48.202;16.334;2022-07-09T02:24:08;4.38;;;1.95;;
40154;SDS011;25875;48.202;16.334;2022-07-09T02:26:36;3.47;;;2.20;;
40154;SDS011;25875;48.202;16.334;2022-07-09T02:29:03;7.25;;;2.60;;
40154;SDS011;25875;48.202;16.334;2022-07-09T02:31:32;4.68;;;2.53;;
40154;SDS011;25875;48.202;16.334;2022-07-09T02:33:59;4.60;;;2.25;;
40154;SDS011;25875;48.202;16.334;2022-07-09T02:36:27;5.80;;;2.25;;
40154;SDS011;25875;48.202;16.334;2022-07-09T02:38:54;6.75;;;2.40;;
40154;SDS011;25875;48.202;16.334;2022-07-09T02:41:21;3.30;;;2.45;;
40154;SDS011;25875;48.202;16.334;2022-07-09T02:43:48;4.18;;;2.10;;
40154;SDS011;25875;48.202;16.334;2022-07-09T02:46:16;3.65;;;2.33;;
40154;SDS011;25875;48.202;16.334;2022-07-09T02:48:45;6.05;;;2.33;;
40154;SDS011;25875;48.202;16.334;2022-07-09T02:51:12;3.35;;;2.42;;
40154;SDS011;25875;48.202;16.334;2022-07-09T02:53:39;4.55;;;2.30;;
40154;SDS011;25875;48.202;16.334;2022-07-09T02:56:06;3.80;;;2.55;;
40154;SDS011;25875;48.202;16.334;2022-07-09T02:58:33;9.75;;;2.65;;
40154;SDS011;25875;48.202;16.334;2022-07-09T03:01:01;4.82;;;2.30;;
40154;SDS011;25875;48.202;16.334;2022-07-09T03:03:30;4.65;;;2.45;;
40154;SDS011;25875;48.202;16.334;2022-07-09T03:06:03;3.60;;;2.13;;
40154;SDS011;25875;48.202;16.334;2022-07-09T03:08:31;3.95;;;2.40;;
40154;SDS011;25875;48.202;16.334;2022-07-09T03:10:59;4.72;;;2.25;;
40154;SDS011;25875;48.202;16.334;2022-07-09T03:13:26;3.97;;;2.25;;
40154;SDS011;25875;48.202;16.334;2022-07-09T03:15:53;5.57;;;2.30;;
40154;SDS011;25875;48.202;16.334;2022-07-09T03:18:20;4.20;;;2.65;;
40154;SDS011;25875;48.202;16.334;2022-07-09T03:20:48;5.05;;;2.30;;
40154;SDS011;25875;48.202;16.334;2022-07-09T03:23:17;4.70;;;2.20;;
40154;SDS011;25875;48.202;16.334;2022-07-09T03:25:45;3.95;;;2.17;;
40154;SDS011;25875;48.202;16.334;2022-07-09T03:28:12;5.53;;;2.47;;
40154;SDS011;25875;48.202;16.334;2022-07-09T03:30:39;5.78;;;2.58;;
40154;SDS011;25875;48.202;16.334;2022-07-09T03:33:07;7.00;;;2.95;;
40154;SDS011;25875;48.202;16.334;2022-07-09T03:35:34;4.38;;;2.35;;
40154;SDS011;25875;48.202;16.334;2022-07-09T03:38:01;4.55;;;3.15;;
40154;SDS011;25875;48.202;16.334;2022-07-09T03:40:30;4.80;;;2.65;;
40154;SDS011;25875;48.202;16.334;2022-07-09T03:42:57;4.57;;;2.30;;
40154;SDS011;25875;48.202;16.334;2022-07-09T03:45:24;4.78;;;2.47;;
40154;SDS011;25875;48.202;16.334;2022-07-09T03:47:52;6.15;;;2.67;;
40154;SDS011;25875;48.202;16.334;2022-07-09T03:50:19;3.70;;;2.15;;
40154;SDS011;25875;48.202;16.334;2022-07-09T03:52:46;3.65;;;2.70;;
40154;SDS011;25875;48.202;16.334;2022-07-09T03:55:13;4.35;;;2.45;;
40154;SDS011;25875;48.202;16.334;2022-07-09T03:57:42;6.88;;;2.58;;
40154;SDS011;25875;48.202;16.334;2022-07-09T04:00:10;5.45;;;2.20;;
40154;SDS011;25875;48.202;16.334;2022-07-09T04:02:37;5.13;;;2.03;;
40154;SDS011;25875;48.202;16.334;2022-07-09T04:05:05;7.28;;;2.55;;
40154;SDS011;25875;48.202;16.334;2022-07-09T04:07:34;4.10;;;2.35;;
40154;SDS011;25875;48.202;16.334;2022-07-09T04:10:01;4.43;;;2.15;;
40154;SDS011;25875;48.202;16.334;2022-07-09T04:12:29;5.60;;;2.60;;
40154;SDS011;25875;48.202;16.334;2022-07-09T04:14:58;3.42;;;2.25;;
40154;SDS011;25875;48.202;16.334;2022-07-09T04:17:25;6.22;;;3.10;;
40154;SDS011;25875;48.202;16.334;2022-07-09T04:19:52;6.55;;;4.05;;
40154;SDS011;25875;48.202;16.334;2022-07-09T04:22:20;8.25;;;4.95;;
40154;SDS011;25875;48.202;16.334;2022-07-09T04:24:47;7.72;;;5.68;;
40154;SDS011;25875;48.202;16.334;2022-07-09T04:27:14;8.82;;;5.28;;
40154;SDS011;25875;48.202;16.334;2022-07-09T04:29:41;5.43;;;3.40;;
40154;SDS011;25875;48.202;16.334;2022-07-09T04:32:11;7.82;;;3.80;;
40154;SDS011;25875;48.202;16.334;2022-07-09T04:34:38;6.07;;;3.10;;
40154;SDS011;25875;48.202;16.334;2022-07-09T04:37:06;4.68;;;3.30;;
40154;SDS011;25875;48.202;16.334;2022-07-09T04:39:33;4.43;;;2.60;;
40154;SDS011;25875;48.202;16.334;2022-07-09T04:42:00;4.50;;;2.88;;
40154;SDS011;25875;48.202;16.334;2022-07-09T04:44:27;3.88;;;2.40;;
40154;SDS011;25875;48.202;16.334;2022-07-09T04:46:54;4.53;;;2.42;;
40154;SDS011;25875;48.202;16.334;2022-07-09T04:49:23;4.60;;;2.13;;
40154;SDS011;25875;48.202;16.334;2022-07-09T04:51:51;5.55;;;2.40;;
40154;SDS011;25875;48.202;16.334;2022-07-09T04:54:18;4.03;;;2.47;;
40154;SDS011;25875;48.202;16.334;2022-07-09T04:56:46;4.20;;;2.50;;
40154;SDS011;25875;48.202;16.334;2022-07-09T04:59:13;6.30;;;3.30;;
40154;SDS011;25875;48.202;16.334;2022-07-09T05:01:40;5.00;;;2.97;;
40154;SDS011;25875;48.202;16.334;2022-07-09T05:04:07;6.75;;;4.40;;
40154;SDS011;25875;48.202;16.334;2022-07-09T05:06:36;5.38;;;3.28;;
40154;SDS011;25875;48.202;16.334;2022-07-09T05:09:03;4.63;;;2.65;;
40154;SDS011;25875;48.202;16.334;2022-07-09T05:11:30;3.70;;;2.83;;
40154;SDS011;25875;48.202;16.334;2022-07-09T05:13:58;5.22;;;2.75;;
40154;SDS011;25875;48.202;16.334;2022-07-09T05:16:26;5.28;;;4.22;;
40154;SDS011;25875;48.202;16.334;2022-07-09T05:18:53;5.35;;;3.10;;
40154;SDS011;25875;48.202;16.334;2022-07-09T05:21:20;5.20;;;3.50;;
40154;SDS011;25875;48.202;16.334;2022-07-09T05:23:49;5.53;;;3.78;;
40154;SDS011;25875;48.202;16.334;2022-07-09T05:26:19;4.68;;;3.38;;
40154;SDS011;25875;48.202;16.334;2022-07-09T05:28:49;3.72;;;2.45;;
40154;SDS011;25875;48.202;16.334;2022-07-09T05:31:18;6.30;;;2.72;;
40154;SDS011;25875;48.202;16.334;2022-07-09T05:33:46;4.13;;;2.63;;
40154;SDS011;25875;48.202;16.334;2022-07-09T05:36:13;5.13;;;2.55;;
40154;SDS011;25875;48.202;16.334;2022-07-09T05:38:42;4.68;;;2.42;;
40154;SDS011;25875;48.202;16.334;2022-07-09T05:41:13;3.38;;;2.03;;
40154;SDS011;25875;48.202;16.334;2022-07-09T05:43:41;3.80;;;2.40;;
40154;SDS011;25875;48.202;16.334;2022-07-09T05:46:08;3.40;;;2.00;;
40154;SDS011;25875;48.202;16.334;2022-07-09T05:48:35;4.78;;;2.35;;
40154;SDS011;25875;48.202;16.334;2022-07-09T05:51:03;4.50;;;2.65;;
40154;SDS011;25875;48.202;16.334;2022-07-09T05:53:31;4.75;;;2.65;;
40154;SDS011;25875;48.202;16.334;2022-07-09T05:55:58;3.97;;;2.40;;
40154;SDS011;25875;48.202;16.334;2022-07-09T05:58:27;3.58;;;2.40;;
40154;SDS011;25875;48.202;16.334;2022-07-09T06:00:54;4.20;;;2.53;;
40154;SDS011;25875;48.202;16.334;2022-07-09T06:03:21;5.28;;;2.72;;
40154;SDS011;25875;48.202;16.334;2022-07-09T06:05:50;3.45;;;2.25;;
40154;SDS011;25875;48.202;16.334;2022-07-09T06:08:18;5.28;;;2.58;;
40154;SDS011;25875;48.202;16.334;2022-07-09T06:10:45;4.35;;;2.47;;
40154;SDS011;25875;48.202;16.334;2022-07-09T06:13:14;4.10;;;2.65;;
40154;SDS011;25875;48.202;16.334;2022-07-09T06:15:42;4.22;;;2.50;;
40154;SDS011;25875;48.202;16.334;2022-07-09T06:18:09;4.82;;;2.60;;
40154;SDS011;25875;48.202;16.334;2022-07-09T06:20:37;3.80;;;2.70;;
40154;SDS011;25875;48.202;16.334;2022-07-09T06:23:04;5.43;;;2.55;;
40154;SDS011;25875;48.202;16.334;2022-07-09T06:25:31;3.95;;;2.30;;
40154;SDS011;25875;48.202;16.334;2022-07-09T06:27:59;3.88;;;2.22;;
40154;SDS011;25875;48.202;16.334;2022-07-09T06:30:26;2.90;;;2.25;;
40154;SDS011;25875;48.202;16.334;2022-07-09T06:32:55;4.68;;;2.55;;
40154;SDS011;25875;48.202;16.334;2022-07-09T06:35:22;3.17;;;2.22;;
40154;SDS011;25875;48.202;16.334;2022-07-09T06:37:50;3.33;;;2.00;;
40154;SDS011;25875;48.202;16.334;2022-07-09T06:40:17;3.42;;;2.42;;
40154;SDS011;25875;48.202;16.334;2022-07-09T06:42:44;4.63;;;2.80;;
40154;SDS011;25875;48.202;16.334;2022-07-09T06:45:11;3.40;;;2.28;;
40154;SDS011;25875;48.202;16.334;2022-07-09T06:47:40;4.90;;;2.47;;
40154;SDS011;25875;48.202;16.334;2022-07-09T06:50:09;5.72;;;2.30;;
40154;SDS011;25875;48.202;16.334;2022-07-09T06:52:37;4.75;;;2.60;;
40154;SDS011;25875;48.202;16.334;2022-07-09T06:55:04;3.60;;;2.60;;
40154;SDS011;25875;48.202;16.334;2022-07-09T06:57:32;3.60;;;2.40;;
40154;SDS011;25875;48.202;16.334;2022-07-09T07:00:00;3.10;;;2.00;;
40154;SDS011;25875;48.202;16.334;2022-07-09T07:02:27;5.55;;;3.15;;
40154;SDS011;25875;48.202;16.334;2022-07-09T07:04:54;5.15;;;2.60;;
40154;SDS011;25875;48.202;16.334;2022-07-09T07:07:23;4.15;;;2.33;;
40154;SDS011;25875;48.202;16.334;2022-07-09T07:09:50;4.65;;;2.17;;
40154;SDS011;25875;48.202;16.334;2022-07-09T07:12:17;3.33;;;2.20;;
40154;SDS011;25875;48.202;16.334;2022-07-09T07:14:45;4.35;;;2.20;;
40154;SDS011;25875;48.202;16.334;2022-07-09T07:17:12;5.63;;;2.58;;
40154;SDS011;25875;48.202;16.334;2022-07-09T07:19:39;5.10;;;2.75;;
40154;SDS011;25875;48.202;16.334;2022-07-09T07:22:07;5.63;;;2.78;;
40154;SDS011;25875;48.202;16.334;2022-07-09T07:24:35;5.28;;;2.55;;
40154;SDS011;25875;48.202;16.334;2022-07-09T07:27:02;6.28;;;3.00;;
40154;SDS011;25875;48.202;16.334;2022-07-09T07:29:30;6.55;;;3.05;;
40154;SDS011;25875;48.202;16.334;2022-07-09T07:31:57;6.53;;;2.80;;
40154;SDS011;25875;48.202;16.334;2022-07-09T07:34:25;5.88;;;3.05;;
40154;SDS011;25875;48.202;16.334;2022-07-09T07:36:52;6.78;;;2.92;;
40154;SDS011;25875;48.202;16.334;2022-07-09T07:39:20;5.57;;;2.72;;
40154;SDS011;25875;48.202;16.334;2022-07-09T07:41:52;4.25;;;2.70;;
40154;SDS011;25875;48.202;16.334;2022-07-09T07:44:19;3.95;;;2.50;;
40154;SDS011;25875;48.202;16.334;2022-07-09T07:46:48;6.20;;;2.40;;
40154;SDS011;25875;48.202;16.334;2022-07-09T07:49:15;6.20;;;2.72;;
40154;SDS011;25875;48.202;16.334;2022-07-09T07:51:43;3.65;;;2.20;;
40154;SDS011;25875;48.202;16.334;2022-07-09T07:54:10;4.20;;;2.42;;
40154;SDS011;25875;48.202;16.334;2022-07-09T07:56:38;5.93;;;2.55;;
40154;SDS011;25875;48.202;16.334;2022-07-09T07:59:06;6.45;;;2.50;;
40154;SDS011;25875;48.202;16.334;2022-07-09T08:01:34;5.25;;;2.40;;
40154;SDS011;25875;48.202;16.334;2022-07-09T08:04:01;5.28;;;2.03;;
40154;SDS011;25875;48.202;16.334;2022-07-09T08:06:29;3.85;;;2.33;;
40154;SDS011;25875;48.202;16.334;2022-07-09T08:08:56;3.40;;;2.03;;
40154;SDS011;25875;48.202;16.334;2022-07-09T08:11:23;4.43;;;2.28;;
40154;SDS011;25875;48.202;16.334;2022-07-09T08:13:51;5.38;;;2.80;;
40154;SDS011;25875;48.202;16.334;2022-07-09T08:16:20;5.45;;;3.38;;
40154;SDS011;25875;48.202;16.334;2022-07-09T08:18:47;4.78;;;1.92;;
40154;SDS011;25875;48.202;16.334;2022-07-09T08:21:15;5.63;;;2.95;;
40154;SDS011;25875;48.202;16.334;2022-07-09T08:23:42;3.95;;;2.90;;
40154;SDS011;25875;48.202;16.334;2022-07-09T08:26:20;5.88;;;2.78;;
40154;SDS011;25875;48.202;16.334;2022-07-09T08:28:48;5.10;;;2.80;;
40154;SDS011;25875;48.202;16.334;2022-07-09T08:31:16;4.63;;;3.55;;
40154;SDS011;25875;48.202;16.334;2022-07-09T08:33:46;5.03;;;3.20;;
40154;SDS011;25875;48.202;16.334;2022-07-09T08:36:13;5.90;;;3.90;;
40154;SDS011;25875;48.202;16.334;2022-07-09T08:38:42;4.03;;;2.70;;
40154;SDS011;25875;48.202;16.334;2022-07-09T08:41:10;3.30;;;2.25;;
40154;SDS011;25875;48.202;16.334;2022-07-09T08:43:39;5.32;;;2.63;;
40154;SDS011;25875;48.202;16.334;2022-07-09T08:46:06;6.88;;;2.83;;
40154;SDS011;25875;48.202;16.334;2022-07-09T08:48:34;3.88;;;2.20;;
40154;SDS011;25875;48.202;16.334;2022-07-09T08:51:04;3.88;;;2.20;;
40154;SDS011;25875;48.202;16.334;2022-07-09T08:53:32;4.82;;;2.55;;
40154;SDS011;25875;48.202;16.334;2022-07-09T08:56:00;4.43;;;2.70;;
40154;SDS011;25875;48.202;16.334;2022-07-09T08:58:28;3.58;;;2.47;;
40154;SDS011;25875;48.202;16.334;2022-07-09T09:00:55;3.13;;;2.03;;
40154;SDS011;25875;48.202;16.334;2022-07-09T09:03:24;3.15;;;2.13;;
40154;SDS011;25875;48.202;16.334;2022-07-09T09:06:02;3.20;;;2.20;;
40154;SDS011;25875;48.202;16.334;2022-07-09T09:08:35;3.78;;;2.80;;
40154;SDS011;25875;48.202;16.334;2022-07-09T09:11:04;10.02;;;2.55;;
40154;SDS011;25875;48.202;16.334;2022-07-09T09:13:36;4.80;;;2.60;;
40154;SDS011;25875;48.202;16.334;2022-07-09T09:16:08;5.15;;;2.97;;
40154;SDS011;25875;48.202;16.334;2022-07-09T09:18:36;5.43;;;3.55;;
40154;SDS011;25875;48.202;16.334;2022-07-09T09:21:05;4.53;;;3.28;;
40154;SDS011;25875;48.202;16.334;2022-07-09T09:23:38;4.20;;;2.80;;
40154;SDS011;25875;48.202;16.334;2022-07-09T09:26:10;3.97;;;2.83;;
40154;SDS011;25875;48.202;16.334;2022-07-09T09:28:45;4.35;;;2.88;;
40154;SDS011;25875;48.202;16.334;2022-07-09T09:31:17;3.47;;;2.50;;
40154;SDS011;25875;48.202;16.334;2022-07-09T09:33:46;3.53;;;2.65;;
40154;SDS011;25875;48.202;16.334;2022-07-09T09:36:27;5.63;;;3.70;;
40154;SDS011;25875;48.202;16.334;2022-07-09T09:39:08;5.72;;;3.33;;
40154;SDS011;25875;48.202;16.334;2022-07-09T09:41:40;5.45;;;4.13;;
40154;SDS011;25875;48.202;16.334;2022-07-09T09:44:09;4.57;;;3.65;;
40154;SDS011;25875;48.202;16.334;2022-07-09T09:46:39;5.40;;;3.45;;
40154;SDS011;25875;48.202;16.334;2022-07-09T09:49:07;3.97;;;2.55;;
40154;SDS011;25875;48.202;16.334;2022-07-09T09:51:38;5.50;;;3.80;;
40154;SDS011;25875;48.202;16.334;2022-07-09T09:54:13;5.10;;;3.58;;
40154;SDS011;25875;48.202;16.334;2022-07-09T09:56:41;5.97;;;5.38;;
40154;SDS011;25875;48.202;16.334;2022-07-09T09:59:09;6.50;;;3.78;;
40154;SDS011;25875;48.202;16.334;2022-07-09T10:01:38;7.72;;;5.15;;
40154;SDS011;25875;48.202;16.334;2022-07-09T10:04:07;6.38;;;4.90;;
40154;SDS011;25875;48.202;16.334;2022-07-09T10:06:36;5.03;;;3.15;;
40154;SDS011;25875;48.202;16.334;2022-07-09T10:09:06;5.05;;;3.15;;
40154;SDS011;25875;48.202;16.334;2022-07-09T10:11:41;4.78;;;3.67;;
40154;SDS011;25875;48.202;16.334;2022-07-09T10:14:14;3.63;;;2.35;;
40154;SDS011;25875;48.202;16.334;2022-07-09T10:16:42;3.78;;;2.72;;
40154;SDS011;25875;48.202;16.334;2022-07-09T10:19:10;4.35;;;3.40;;
40154;SDS011;25875;48.202;16.334;2022-07-09T10:21:40;5.45;;;3.65;;
40154;SDS011;25875;48.202;16.334;2022-07-09T10:24:09;6.25;;;4.05;;
40154;SDS011;25875;48.202;16.334;2022-07-09T10:26:37;5.90;;;4.53;;
40154;SDS011;25875;48.202;16.334;2022-07-09T10:29:18;7.45;;;5.45;;
40154;SDS011;25875;48.202;16.334;2022-07-09T10:31:47;7.47;;;4.78;;
40154;SDS011;25875;48.202;16.334;2022-07-09T10:34:18;8.02;;;4.35;;
40154;SDS011;25875;48.202;16.334;2022-07-09T10:37:07;5.53;;;3.53;;
40154;SDS011;25875;48.202;16.334;2022-07-09T10:39:35;4.10;;;2.78;;
40154;SDS011;25875;48.202;16.334;2022-07-09T10:42:05;4.80;;;2.45;;
40154;SDS011;25875;48.202;16.334;2022-07-09T10:44:33;6.05;;;3.50;;
40154;SDS011;25875;48.202;16.334;2022-07-09T10:47:01;6.53;;;3.58;;
40154;SDS011;25875;48.202;16.334;2022-07-09T10:49:30;6.47;;;3.92;;
40154;SDS011;25875;48.202;16.334;2022-07-09T10:52:00;3.47;;;2.80;;
40154;SDS011;25875;48.202;16.334;2022-07-09T10:54:30;4.50;;;3.20;;
40154;SDS011;25875;48.202;16.334;2022-07-09T10:56:58;6.90;;;3.55;;
40154;SDS011;25875;48.202;16.334;2022-07-09T10:59:26;5.43;;;2.78;;
40154;SDS011;25875;48.202;16.334;2022-07-09T11:01:54;5.68;;;3.97;;
40154;SDS011;25875;48.202;16.334;2022-07-09T11:04:27;5.22;;;3.55;;
40154;SDS011;25875;48.202;16.334;2022-07-09T11:06:55;5.35;;;3.05;;
40154;SDS011;25875;48.202;16.334;2022-07-09T11:09:22;4.03;;;2.58;;
40154;SDS011;25875;48.202;16.334;2022-07-09T11:11:56;4.65;;;2.40;;
40154;SDS011;25875;48.202;16.334;2022-07-09T11:14:24;4.13;;;3.25;;
40154;SDS011;25875;48.202;16.334;2022-07-09T11:16:55;5.18;;;2.83;;
40154;SDS011;25875;48.202;16.334;2022-07-09T11:19:24;4.97;;;3.97;;
40154;SDS011;25875;48.202;16.334;2022-07-09T11:22:00;6.25;;;4.75;;
40154;SDS011;25875;48.202;16.334;2022-07-09T11:24:29;4.88;;;3.65;;
40154;SDS011;25875;48.202;16.334;2022-07-09T11:27:02;4.30;;;2.83;;
40154;SDS011;25875;48.202;16.334;2022-07-09T11:29:30;4.88;;;2.67;;
40154;SDS011;25875;48.202;16.334;2022-07-09T11:31:58;3.40;;;2.20;;
40154;SDS011;25875;48.202;16.334;2022-07-09T11:34:27;5.88;;;2.80;;
40154;SDS011;25875;48.202;16.334;2022-07-09T11:36:55;3.75;;;2.03;;
40154;SDS011;25875;48.202;16.334;2022-07-09T11:39:23;3.88;;;2.30;;
40154;SDS011;25875;48.202;16.334;2022-07-09T11:41:52;3.10;;;2.30;;
40154;SDS011;25875;48.202;16.334;2022-07-09T11:44:25;5.53;;;2.78;;
40154;SDS011;25875;48.202;16.334;2022-07-09T11:47:00;4.85;;;2.90;;
40154;SDS011;25875;48.202;16.334;2022-07-09T11:49:32;4.38;;;2.90;;
40154;SDS011;25875;48.202;16.334;2022-07-09T11:52:00;3.63;;;2.50;;
40154;SDS011;25875;48.202;16.334;2022-07-09T11:54:28;5.32;;;2.95;;
40154;SDS011;25875;48.202;16.334;2022-07-09T11:56:55;4.25;;;2.50;;
40154;SDS011;25875;48.202;16.334;2022-07-09T11:59:27;5.25;;;3.40;;
40154;SDS011;25875;48.202;16.334;2022-07-09T12:04:24;3.85;;;2.50;;
40154;SDS011;25875;48.202;16.334;2022-07-09T12:06:54;5.10;;;3.20;;
40154;SDS011;25875;48.202;16.334;2022-07-09T12:09:28;4.55;;;2.88;;
40154;SDS011;25875;48.202;16.334;2022-07-09T12:11:57;4.10;;;3.25;;
40154;SDS011;25875;48.202;16.334;2022-07-09T12:14:28;3.35;;;2.35;;
40154;SDS011;25875;48.202;16.334;2022-07-09T12:16:56;6.30;;;2.42;;
40154;SDS011;25875;48.202;16.334;2022-07-09T12:19:24;3.03;;;1.88;;
40154;SDS011;25875;48.202;16.334;2022-07-09T12:21:51;4.13;;;2.80;;
40154;SDS011;25875;48.202;16.334;2022-07-09T12:24:18;3.10;;;2.10;;
40154;SDS011;25875;48.202;16.334;2022-07-09T12:26:45;4.55;;;2.00;;
40154;SDS011;25875;48.202;16.334;2022-07-09T12:29:13;3.17;;;2.28;;
40154;SDS011;25875;48.202;16.334;2022-07-09T12:31:42;4.88;;;2.33;;
40154;SDS011;25875;48.202;16.334;2022-07-09T12:34:10;3.00;;;2.20;;
40154;SDS011;25875;48.202;16.334;2022-07-09T12:36:38;4.80;;;2.03;;
40154;SDS011;25875;48.202;16.334;2022-07-09T12:39:07;4.55;;;3.20;;
40154;SDS011;25875;48.202;16.334;2022-07-09T12:41:34;5.20;;;3.13;;
40154;SDS011;25875;48.202;16.334;2022-07-09T12:44:02;4.70;;;3.20;;
40154;SDS011;25875;48.202;16.334;2022-07-09T12:46:30;3.10;;;2.08;;
40154;SDS011;25875;48.202;16.334;2022-07-09T12:48:59;3.25;;;2.05;;
40154;SDS011;25875;48.202;16.334;2022-07-09T12:51:26;3.97;;;2.50;;
40154;SDS011;25875;48.202;16.334;2022-07-09T12:53:55;3.70;;;2.42;;
40154;SDS011;25875;48.202;16.334;2022-07-09T12:56:22;3.45;;;2.38;;
40154;SDS011;25875;48.202;16.334;2022-07-09T12:58:50;2.95;;;2.20;;
40154;SDS011;25875;48.202;16.334;2022-07-09T13:01:17;4.32;;;2.13;;
40154;SDS011;25875;48.202;16.334;2022-07-09T13:03:45;4.63;;;3.35;;
40154;SDS011;25875;48.202;16.334;2022-07-09T13:06:14;3.83;;;2.80;;
40154;SDS011;25875;48.202;16.334;2022-07-09T13:08:55;3.90;;;2.50;;
40154;SDS011;25875;48.202;16.334;2022-07-09T13:11:23;6.80;;;2.60;;
40154;SDS011;25875;48.202;16.334;2022-07-09T13:13:50;3.72;;;2.33;;
40154;SDS011;25875;48.202;16.334;2022-07-09T13:16:17;4.47;;;2.63;;
40154;SDS011;25875;48.202;16.334;2022-07-09T13:18:45;3.60;;;2.42;;
40154;SDS011;25875;48.202;16.334;2022-07-09T13:21:12;3.85;;;2.25;;
40154;SDS011;25875;48.202;16.334;2022-07-09T13:23:40;2.97;;;1.80;;
40154;SDS011;25875;48.202;16.334;2022-07-09T13:26:08;2.45;;;1.90;;
40154;SDS011;25875;48.202;16.334;2022-07-09T13:28:35;2.97;;;1.90;;
40154;SDS011;25875;48.202;16.334;2022-07-09T13:31:03;3.10;;;2.17;;
40154;SDS011;25875;48.202;16.334;2022-07-09T13:33:31;6.38;;;3.90;;
40154;SDS011;25875;48.202;16.334;2022-07-09T13:35:58;5.30;;;3.45;;
40154;SDS011;25875;48.202;16.334;2022-07-09T13:38:26;5.63;;;3.58;;
40154;SDS011;25875;48.202;16.334;2022-07-09T13:40:54;4.70;;;2.83;;
40154;SDS011;25875;48.202;16.334;2022-07-09T13:43:22;4.63;;;2.67;;
40154;SDS011;25875;48.202;16.334;2022-07-09T13:45:51;3.15;;;2.08;;
40154;SDS011;25875;48.202;16.334;2022-07-09T13:48:20;3.40;;;2.40;;
40154;SDS011;25875;48.202;16.334;2022-07-09T13:50:47;4.22;;;2.63;;
40154;SDS011;25875;48.202;16.334;2022-07-09T13:53:14;4.72;;;3.05;;
40154;SDS011;25875;48.202;16.334;2022-07-09T13:55:42;5.32;;;2.85;;
40154;SDS011;25875;48.202;16.334;2022-07-09T13:58:11;4.82;;;3.03;;
40154;SDS011;25875;48.202;16.334;2022-07-09T14:00:38;6.90;;;2.60;;
40154;SDS011;25875;48.202;16.334;2022-07-09T14:03:05;3.90;;;3.08;;
40154;SDS011;25875;48.202;16.334;2022-07-09T14:05:34;4.28;;;3.17;;
40154;SDS011;25875;48.202;16.334;2022-07-09T14:08:03;5.20;;;3.47;;
40154;SDS011;25875;48.202;16.334;2022-07-09T14:10:31;5.03;;;3.45;;
40154;SDS011;25875;48.202;16.334;2022-07-09T14:12:58;4.45;;;2.72;;
40154;SDS011;25875;48.202;16.334;2022-07-09T14:15:27;3.67;;;2.70;;
40154;SDS011;25875;48.202;16.334;2022-07-09T14:17:55;3.75;;;1.92;;
40154;SDS011;25875;48.202;16.334;2022-07-09T14:20:22;3.28;;;2.08;;
40154;SDS011;25875;48.202;16.334;2022-07-09T14:22:49;3.85;;;2.08;;
40154;SDS011;25875;48.202;16.334;2022-07-09T14:25:17;2.92;;;1.88;;
40154;SDS011;25875;48.202;16.334;2022-07-09T14:27:44;3.97;;;2.22;;
40154;SDS011;25875;48.202;16.334;2022-07-09T14:30:11;4.28;;;2.20;;
40154;SDS011;25875;48.202;16.334;2022-07-09T14:32:40;3.45;;;2.20;;
40154;SDS011;25875;48.202;16.334;2022-07-09T14:35:07;5.53;;;3.08;;
40154;SDS011;25875;48.202;16.334;2022-07-09T14:37:34;3.53;;;2.25;;
40154;SDS011;25875;48.202;16.334;2022-07-09T14:40:03;4.80;;;1.95;;
40154;SDS011;25875;48.202;16.334;2022-07-09T14:42:31;6.07;;;3.80;;